createdAt,value
2023-01-20T00:02:22.562Z,1.43
2023-01-20T00:05:26.557Z,1.13
2023-01-20T00:08:29.223Z,1.42
2023-01-20T00:11:32.092Z,1.42
2023-01-20T00:14:34.688Z,1.58
2023-01-20T00:17:37.323Z,1.71
2023-01-20T00:20:41.287Z,1.64
2023-01-20T00:23:44.174Z,1.46
2023-01-20T00:26:46.761Z,1.65
2023-01-20T00:29:49.367Z,1.26
2023-01-20T00:32:52.188Z,1.67
2023-01-20T00:35:56.103Z,1.92
2023-01-20T00:38:58.789Z,1.85
2023-01-20T00:42:01.407Z,1.92
2023-01-20T00:45:04.277Z,2.00
2023-01-20T00:48:07.472Z,2.14
2023-01-20T00:51:12.185Z,2.14
2023-01-20T00:54:14.768Z,2.24
2023-01-20T00:57:17.356Z,1.99
2023-01-20T01:00:20.438Z,1.97
2023-01-20T01:03:23.507Z,1.60
2023-01-20T01:06:27.441Z,2.02
2023-01-20T01:09:30.023Z,2.03
2023-01-20T01:12:32.688Z,2.03
2023-01-20T01:15:35.428Z,2.21
2023-01-20T01:18:38.085Z,2.19
2023-01-20T01:21:42.002Z,1.97
2023-01-20T01:24:44.642Z,1.68
2023-01-20T01:27:47.223Z,1.80
2023-01-20T01:30:49.854Z,1.67
2023-01-20T01:33:52.451Z,1.54
2023-01-20T01:36:56.400Z,1.97
2023-01-20T01:39:58.978Z,2.01
2023-01-20T01:43:01.566Z,1.78
2023-01-20T01:46:05.193Z,1.95
2023-01-20T01:49:14.164Z,1.99
2023-01-20T01:52:20.809Z,2.13
2023-01-20T01:55:28.466Z,2.02
2023-01-20T01:58:34.748Z,2.18
2023-01-20T02:01:40.499Z,1.97
2023-01-20T02:04:43.199Z,1.68
2023-01-20T02:07:48.776Z,1.82
2023-01-20T02:10:51.371Z,1.85
2023-01-20T02:13:54.140Z,1.98
2023-01-20T02:17:05.270Z,2.13
2023-01-20T02:20:37.255Z,2.07
2023-01-20T02:24:03.784Z,1.77
2023-01-20T02:27:12.155Z,2.14
2023-01-20T02:30:55.076Z,1.98
2023-01-20T02:34:03.028Z,1.81
2023-01-20T02:37:12.070Z,1.99
2023-01-20T02:40:26.800Z,1.99
2023-01-20T02:43:35.866Z,1.81
2023-01-20T02:46:45.863Z,1.82
2023-01-20T02:49:55.863Z,1.85
2023-01-20T02:53:02.414Z,2.17
2023-01-20T02:56:05.714Z,2.37
2023-01-20T02:59:12.267Z,1.92
2023-01-20T03:02:18.640Z,1.59
2023-01-20T03:05:28.070Z,1.46
2023-01-20T03:08:33.289Z,1.81
2023-01-20T03:11:41.531Z,1.51
2023-01-20T03:14:44.291Z,1.80
2023-01-20T03:17:46.855Z,1.40
2023-01-20T03:20:50.870Z,1.62
2023-01-20T03:23:55.402Z,1.81
2023-01-20T03:26:58.956Z,1.69
2023-01-20T03:30:01.549Z,1.85
2023-01-20T03:33:04.971Z,1.88
2023-01-20T03:36:10.520Z,1.70
2023-01-20T03:39:13.504Z,1.36
2023-01-20T03:42:20.993Z,1.51
2023-01-20T03:45:32.106Z,1.77
2023-01-20T03:48:41.664Z,1.39
2023-01-20T03:51:55.748Z,1.43
2023-01-20T03:55:02.717Z,1.65
2023-01-20T03:58:08.279Z,1.55
2023-01-20T04:01:18.974Z,1.51
2023-01-20T04:04:22.567Z,1.51
2023-01-20T04:07:27.698Z,1.34
2023-01-20T04:10:32.817Z,1.28
2023-01-20T04:13:36.132Z,0.84
2023-01-20T04:16:39.267Z,1.13
2023-01-20T04:19:41.857Z,1.04
2023-01-20T04:22:50.029Z,1.17
2023-01-20T04:25:52.609Z,1.20
2023-01-20T04:28:55.198Z,1.48
2023-01-20T04:32:01.073Z,1.15
2023-01-20T04:35:03.739Z,1.23
2023-01-20T04:38:07.693Z,1.56
2023-01-20T04:41:12.225Z,1.19
2023-01-20T04:44:14.836Z,1.30
2023-01-20T04:47:17.419Z,1.30
2023-01-20T04:50:20.007Z,1.43
2023-01-20T04:53:23.927Z,1.12
2023-01-20T04:56:27.347Z,1.47
2023-01-20T04:59:29.933Z,1.30
2023-01-20T05:02:32.751Z,1.73
2023-01-20T05:05:35.460Z,1.57
2023-01-20T05:08:39.460Z,1.41
2023-01-20T05:11:42.553Z,1.54
2023-01-20T05:14:45.156Z,1.78
2023-01-20T05:17:47.738Z,1.77
2023-01-20T05:20:50.960Z,1.51
2023-01-20T05:23:55.729Z,1.62
2023-01-20T05:27:01.257Z,1.50
2023-01-20T05:30:03.941Z,1.43
2023-01-20T05:33:06.567Z,1.28
2023-01-20T05:36:10.452Z,1.52
2023-01-20T05:39:14.410Z,1.41
2023-01-20T05:42:16.993Z,1.87
2023-01-20T05:45:19.620Z,1.67
2023-01-20T05:48:22.770Z,1.87
2023-01-20T05:51:25.375Z,2.03
2023-01-20T05:54:29.333Z,1.96
2023-01-20T05:57:31.907Z,1.33
2023-01-20T06:00:34.844Z,1.18
2023-01-20T06:03:37.784Z,1.68
2023-01-20T06:06:40.422Z,0.96
2023-01-20T06:09:44.390Z,1.29
2023-01-20T06:12:52.958Z,1.33
2023-01-20T06:15:56.648Z,1.59
2023-01-20T06:18:59.282Z,1.34
2023-01-20T06:22:01.885Z,1.55
2023-01-20T06:25:06.476Z,1.37
2023-01-20T06:28:09.445Z,1.37
2023-01-20T06:31:14.269Z,1.04
2023-01-20T06:34:16.945Z,1.32
2023-01-20T06:37:19.631Z,1.58
2023-01-20T06:40:23.570Z,1.66
2023-01-20T06:43:26.266Z,1.64
2023-01-20T06:46:28.973Z,1.45
2023-01-20T06:49:33.459Z,1.99
2023-01-20T06:52:36.073Z,1.97
2023-01-20T06:55:39.995Z,2.05
2023-01-20T06:58:42.691Z,2.16
2023-01-20T07:01:45.464Z,2.32
2023-01-20T07:04:48.083Z,2.43
2023-01-20T07:07:50.652Z,2.45
2023-01-20T07:10:54.663Z,2.52
2023-01-20T07:13:57.236Z,2.22
2023-01-20T07:16:59.820Z,2.26
2023-01-20T07:20:02.445Z,2.07
2023-01-20T07:23:05.915Z,1.73
2023-01-20T07:26:11.986Z,1.58
2023-01-20T07:29:16.606Z,1.70
2023-01-20T07:32:20.395Z,1.72
2023-01-20T07:35:23.047Z,1.68
2023-01-20T07:38:26.027Z,1.63
2023-01-20T07:41:29.953Z,1.96
2023-01-20T07:44:33.300Z,1.85
2023-01-20T07:47:35.975Z,1.75
2023-01-20T07:50:38.731Z,1.49
2023-01-20T07:53:43.517Z,1.80
2023-01-20T07:56:47.491Z,2.15
2023-01-20T07:59:50.095Z,2.02
2023-01-20T08:02:52.703Z,1.66
2023-01-20T08:05:55.337Z,1.42
2023-01-20T08:09:01.723Z,1.70
2023-01-20T08:12:06.456Z,1.77
2023-01-20T08:15:10.538Z,1.66
2023-01-20T08:18:13.201Z,1.63
2023-01-20T08:21:21.523Z,1.76
2023-01-20T08:24:24.163Z,1.90
2023-01-20T08:27:28.123Z,1.96
2023-01-20T08:30:30.817Z,2.29
2023-01-20T08:33:33.512Z,2.06
2023-01-20T08:36:39.833Z,2.27
2023-01-20T08:39:42.447Z,2.18
2023-01-20T08:42:46.414Z,2.26
2023-01-20T08:45:49.034Z,1.60
2023-01-20T08:48:51.922Z,2.12
2023-01-20T08:51:55.344Z,2.15
2023-01-20T08:54:58.707Z,2.25
2023-01-20T08:58:03.349Z,2.27
2023-01-20T09:01:09.756Z,2.28
2023-01-20T09:04:13.128Z,2.43
2023-01-20T09:07:15.730Z,1.94
2023-01-20T09:10:19.342Z,2.35
2023-01-20T09:13:23.261Z,2.04
2023-01-20T09:16:25.854Z,2.02
2023-01-20T09:19:28.453Z,2.39
2023-01-20T09:22:31.093Z,2.70
2023-01-20T09:25:33.702Z,2.50
2023-01-20T09:28:37.678Z,2.61
2023-01-20T09:31:44.321Z,2.48
2023-01-20T09:34:47.209Z,2.10
2023-01-20T09:38:07.619Z,2.37
2023-01-20T09:41:36.048Z,2.50
2023-01-20T09:44:47.958Z,1.97
2023-01-20T09:47:50.785Z,1.80
2023-01-20T09:51:20.211Z,1.91
2023-01-20T09:54:27.345Z,1.81
2023-01-20T09:57:34.810Z,1.85
2023-01-20T10:00:41.522Z,2.17
2023-01-20T10:03:52.273Z,2.18
2023-01-20T10:06:58.951Z,1.94
2023-01-20T10:10:10.525Z,2.16
2023-01-20T10:13:18.146Z,2.63
2023-01-20T10:16:30.054Z,2.79
2023-01-20T10:19:38.359Z,2.51
2023-01-20T10:22:46.573Z,2.46
2023-01-20T10:25:53.231Z,2.74
2023-01-20T10:29:00.221Z,2.51
2023-01-20T10:32:07.339Z,2.24
2023-01-20T10:35:17.194Z,2.20
2023-01-20T10:38:27.532Z,2.48
2023-01-20T10:41:37.263Z,2.27
2023-01-20T10:44:40.281Z,2.24
2023-01-20T10:47:55.942Z,1.99
2023-01-20T10:51:07.431Z,2.04
2023-01-20T10:54:23.355Z,2.51
2023-01-20T10:57:26.967Z,2.59
2023-01-20T11:00:32.484Z,2.68
2023-01-20T11:03:40.658Z,2.56
2023-01-20T11:06:43.303Z,3.02
2023-01-20T11:09:48.670Z,3.06
2023-01-20T11:12:53.618Z,3.45
2023-01-20T11:16:00.569Z,3.74
2023-01-20T11:19:05.910Z,3.97
2023-01-20T11:22:13.148Z,4.68
2023-01-20T11:25:25.504Z,5.38
2023-01-20T11:28:32.857Z,6.19
2023-01-20T11:31:41.213Z,6.88
2023-01-20T11:34:50.126Z,5.57
2023-01-20T11:37:53.388Z,5.93
2023-01-20T11:40:57.285Z,6.63
2023-01-20T11:44:01.264Z,6.21
2023-01-20T11:47:17.721Z,6.31
2023-01-20T11:50:33.069Z,6.05
2023-01-20T11:53:36.419Z,5.69
2023-01-20T11:56:42.603Z,4.99
2023-01-20T11:59:49.695Z,4.82
2023-01-20T12:02:58.601Z,4.98
2023-01-20T12:06:08.207Z,5.09
2023-01-20T12:09:14.395Z,4.51
2023-01-20T12:12:28.493Z,4.80
2023-01-20T12:15:33.287Z,4.91
2023-01-20T12:18:53.344Z,5.04
2023-01-20T12:22:14.256Z,4.79
2023-01-20T12:25:21.363Z,5.02
2023-01-20T12:28:29.267Z,4.79
2023-01-20T12:31:32.936Z,4.39
2023-01-20T12:34:35.701Z,4.87
2023-01-20T12:37:45.940Z,4.81
2023-01-20T12:40:52.347Z,5.20
2023-01-20T12:44:03.022Z,5.12
2023-01-20T12:47:19.457Z,5.32
2023-01-20T12:50:33.979Z,4.82
2023-01-20T12:54:03.194Z,5.40
2023-01-20T12:57:16.739Z,5.64
2023-01-20T13:00:34.479Z,5.92
2023-01-20T13:04:26.889Z,5.60
2023-01-20T13:07:41.378Z,6.18
2023-01-20T13:11:04.373Z,6.43
2023-01-20T13:14:13.471Z,6.90
2023-01-20T13:17:25.782Z,6.82
2023-01-20T13:20:31.004Z,6.57
2023-01-20T13:23:36.679Z,6.78
2023-01-20T13:26:40.740Z,6.26
2023-01-20T13:29:53.747Z,7.14
2023-01-20T13:33:05.925Z,7.60
2023-01-20T13:36:17.260Z,8.42
2023-01-20T13:39:42.097Z,8.80
2023-01-20T13:42:53.315Z,8.51
2023-01-20T13:46:52.595Z,7.93
2023-01-20T13:49:55.355Z,7.67
2023-01-20T13:53:14.879Z,6.45
2023-01-20T13:56:26.071Z,7.02
2023-01-20T13:59:30.036Z,7.43
2023-01-20T14:02:37.308Z,7.78
2023-01-20T14:05:40.660Z,7.82
2023-01-20T14:08:45.592Z,7.99
2023-01-20T14:11:50.438Z,8.26
2023-01-20T14:14:54.601Z,8.44
2023-01-20T14:17:59.602Z,8.52
2023-01-20T14:21:05.492Z,9.07
2023-01-20T14:24:29.160Z,8.79
2023-01-20T14:27:37.348Z,8.20
2023-01-20T14:30:41.386Z,8.80
2023-01-20T14:33:45.880Z,8.67
2023-01-20T14:36:48.769Z,8.49
2023-01-20T14:39:52.102Z,7.92
2023-01-20T14:42:59.370Z,7.54
2023-01-20T14:46:03.570Z,6.83
2023-01-20T14:49:06.400Z,6.75
2023-01-20T14:52:12.423Z,6.41
2023-01-20T14:55:32.327Z,6.41
2023-01-20T14:58:36.319Z,6.37
2023-01-20T15:01:40.899Z,6.35
2023-01-20T15:04:44.643Z,6.18
2023-01-20T15:07:47.411Z,6.05
2023-01-20T15:11:12.453Z,5.98
2023-01-20T15:14:15.019Z,5.93
2023-01-20T15:17:20.271Z,5.91
2023-01-20T15:20:31.611Z,5.75
2023-01-20T15:23:38.073Z,5.19
2023-01-20T15:26:40.743Z,5.55
2023-01-20T15:29:43.568Z,5.58
2023-01-20T15:32:48.185Z,5.51
2023-01-20T15:35:59.115Z,5.42
2023-01-20T15:39:01.682Z,5.31
2023-01-20T15:42:04.946Z,5.09
2023-01-20T15:45:08.487Z,5.26
2023-01-20T15:48:18.153Z,5.20
2023-01-20T15:51:21.372Z,5.16
2023-01-20T15:54:23.956Z,5.09
2023-01-20T15:57:26.658Z,5.03
2023-01-20T16:00:30.697Z,4.97
2023-01-20T16:03:35.453Z,4.97
2023-01-20T16:06:38.844Z,4.94
2023-01-20T16:09:41.498Z,4.96
2023-01-20T16:12:44.438Z,4.98
2023-01-20T16:15:47.122Z,5.03
2023-01-20T16:18:51.347Z,4.92
2023-01-20T16:21:53.933Z,4.92
2023-01-20T16:24:56.540Z,4.88
2023-01-20T16:28:00.024Z,4.93
2023-01-20T16:31:02.642Z,4.98
2023-01-20T16:34:07.827Z,4.97
2023-01-20T16:37:14.023Z,5.01
2023-01-20T16:40:19.750Z,5.08
2023-01-20T16:43:24.094Z,5.03
2023-01-20T16:46:29.197Z,5.06
2023-01-20T16:49:33.129Z,5.00
2023-01-20T16:52:35.888Z,5.00
2023-01-20T16:55:38.972Z,5.02
2023-01-20T16:58:41.697Z,4.99
2023-01-20T17:01:44.590Z,4.88
2023-01-20T17:04:48.543Z,4.89
2023-01-20T17:07:51.265Z,4.92
2023-01-20T17:10:53.853Z,4.88
2023-01-20T17:13:56.960Z,4.93
2023-01-20T17:16:59.990Z,4.91
2023-01-20T17:20:04.136Z,4.82
2023-01-20T17:23:06.888Z,4.82
2023-01-20T17:26:10.554Z,4.81
2023-01-20T17:29:13.182Z,4.76
2023-01-20T17:32:16.010Z,4.67
2023-01-20T17:35:20.085Z,4.68
2023-01-20T17:38:23.405Z,4.66
2023-01-20T17:41:26.172Z,4.50
2023-01-20T17:44:28.771Z,4.73
2023-01-20T17:47:31.674Z,4.64
2023-01-20T17:50:35.637Z,4.62
2023-01-20T17:53:38.322Z,4.60
2023-01-20T17:56:40.967Z,4.57
2023-01-20T17:59:43.571Z,4.53
2023-01-20T18:02:46.182Z,4.44
2023-01-20T18:05:53.327Z,4.56
2023-01-20T18:08:57.325Z,4.50
2023-01-20T18:12:00.035Z,4.52
2023-01-20T18:15:02.782Z,4.47
2023-01-20T18:18:05.481Z,4.48
2023-01-20T18:21:10.622Z,4.48
2023-01-20T18:24:13.649Z,4.48
2023-01-20T18:27:18.672Z,4.43
2023-01-20T18:30:21.429Z,4.43
2023-01-20T18:33:25.146Z,4.41
2023-01-20T18:36:31.100Z,4.45
2023-01-20T18:39:34.560Z,4.46
2023-01-20T18:42:37.274Z,4.45
2023-01-20T18:45:39.941Z,4.39
2023-01-20T18:48:45.767Z,4.51
2023-01-20T18:51:49.767Z,4.54
2023-01-20T18:54:52.341Z,4.48
2023-01-20T18:57:54.917Z,4.53
2023-01-20T19:01:03.387Z,4.52
2023-01-20T19:04:08.048Z,4.49
2023-01-20T19:07:11.973Z,4.42
2023-01-20T19:10:14.913Z,4.41
2023-01-20T19:13:17.591Z,4.43
2023-01-20T19:16:22.079Z,4.42
2023-01-20T19:19:24.794Z,4.40
2023-01-20T19:22:28.847Z,4.33
2023-01-20T19:25:31.716Z,4.31
2023-01-20T19:28:35.019Z,4.29
2023-01-20T19:31:40.264Z,4.32
2023-01-20T19:34:44.961Z,4.20
2023-01-20T19:37:49.020Z,4.22
2023-01-20T19:40:51.617Z,4.27
2023-01-20T19:43:56.970Z,4.26
2023-01-20T19:47:04.057Z,4.21
2023-01-20T19:50:07.488Z,4.22
2023-01-20T19:53:11.421Z,4.19
2023-01-20T19:56:16.252Z,4.20
2023-01-20T19:59:18.986Z,4.13
2023-01-20T20:02:21.754Z,4.23
2023-01-20T20:05:24.470Z,4.16
2023-01-20T20:08:28.547Z,4.08
2023-01-20T20:11:32.252Z,4.14
2023-01-20T20:14:35.153Z,4.18
2023-01-20T20:17:37.762Z,4.12
2023-01-20T20:20:40.335Z,4.04
2023-01-20T20:23:44.263Z,4.06
2023-01-20T20:26:48.041Z,4.10
2023-01-20T20:29:50.675Z,4.12
2023-01-20T20:32:53.378Z,4.10
2023-01-20T20:35:55.950Z,4.12
2023-01-20T20:39:01.000Z,4.15
2023-01-20T20:42:03.767Z,4.21
2023-01-20T20:45:07.374Z,4.13
2023-01-20T20:48:10.679Z,4.11
2023-01-20T20:51:15.761Z,4.17
2023-01-20T20:54:19.901Z,4.17
2023-01-20T20:57:22.524Z,4.16
2023-01-20T21:00:28.103Z,4.12
2023-01-20T21:03:30.866Z,4.15
2023-01-20T21:06:34.159Z,4.12
2023-01-20T21:09:38.113Z,4.19
2023-01-20T21:12:40.900Z,4.18
2023-01-20T21:15:43.601Z,4.09
2023-01-20T21:18:46.215Z,4.10
2023-01-20T21:21:48.802Z,4.09
2023-01-20T21:24:52.710Z,3.98
2023-01-20T21:27:55.345Z,4.13
2023-01-20T21:30:57.974Z,4.11
2023-01-20T21:34:01.627Z,4.14
2023-01-20T21:37:04.297Z,4.07
2023-01-20T21:40:09.454Z,4.09
2023-01-20T21:43:29.451Z,4.02
2023-01-20T21:46:35.877Z,4.00
2023-01-20T21:49:57.456Z,4.06
2023-01-20T21:53:00.033Z,4.07
2023-01-20T21:56:04.154Z,4.11
2023-01-20T21:59:07.526Z,4.09
2023-01-20T22:02:12.289Z,4.11
2023-01-20T22:05:15.089Z,4.13
2023-01-20T22:08:17.696Z,4.08
2023-01-20T22:11:21.764Z,4.10
2023-01-20T22:14:24.372Z,4.08
2023-01-20T22:17:27.100Z,4.15
2023-01-20T22:20:30.150Z,4.20
2023-01-20T22:23:33.264Z,4.18
2023-01-20T22:26:37.345Z,4.24
2023-01-20T22:29:40.024Z,4.24
2023-01-20T22:32:42.601Z,4.20
2023-01-20T22:35:45.208Z,4.13
2023-01-20T22:38:49.952Z,4.17
2023-01-20T22:41:54.044Z,4.20
2023-01-20T22:44:56.749Z,4.17
2023-01-20T22:47:59.324Z,4.21
2023-01-20T22:51:05.991Z,4.26
2023-01-20T22:54:10.616Z,4.26
2023-01-20T22:57:14.561Z,4.35
2023-01-20T23:00:18.951Z,4.36
2023-01-20T23:03:21.835Z,4.31
2023-01-20T23:06:25.951Z,4.38
2023-01-20T23:09:28.738Z,4.37
2023-01-20T23:12:32.755Z,4.45
2023-01-20T23:15:35.375Z,4.44
2023-01-20T23:18:38.075Z,4.39
2023-01-20T23:21:40.801Z,4.33
2023-01-20T23:24:43.397Z,4.31
2023-01-20T23:27:47.343Z,4.35
2023-01-20T23:30:49.938Z,4.29
2023-01-20T23:33:54.796Z,4.25
2023-01-20T23:36:57.710Z,4.30
2023-01-20T23:40:00.294Z,4.42
2023-01-20T23:43:04.262Z,4.44
2023-01-20T23:46:07.921Z,4.32
2023-01-20T23:49:10.529Z,4.34
2023-01-20T23:52:13.518Z,4.30
2023-01-20T23:55:16.196Z,4.21
2023-01-20T23:58:20.117Z,4.14
